createdAt,value
2019-02-17T00:01:04.063Z,5.20
2019-02-17T00:03:33.542Z,5.10
2019-02-17T00:06:02.994Z,5.10
2019-02-17T00:08:32.453Z,5.10
2019-02-17T00:11:01.971Z,5.10
2019-02-17T00:13:31.590Z,5.00
2019-02-17T00:16:01.113Z,5.00
2019-02-17T00:18:30.562Z,5.00
2019-02-17T00:21:00.035Z,4.90
2019-02-17T00:23:29.587Z,4.90
2019-02-17T00:25:59.167Z,4.90
2019-02-17T00:28:28.765Z,4.90
2019-02-17T00:30:58.248Z,4.80
2019-02-17T00:33:27.719Z,4.80
2019-02-17T00:35:57.255Z,4.80
2019-02-17T00:38:26.766Z,4.70
2019-02-17T00:40:56.219Z,4.70
2019-02-17T00:43:25.724Z,4.60
2019-02-17T00:45:55.171Z,4.60
2019-02-17T00:48:24.616Z,4.60
2019-02-17T00:50:54.093Z,4.60
2019-02-17T00:53:23.541Z,4.50
2019-02-17T00:55:52.994Z,4.50
2019-02-17T00:58:22.486Z,4.50
2019-02-17T01:00:51.940Z,4.50
2019-02-17T01:03:21.415Z,4.40
2019-02-17T01:05:50.906Z,4.40
2019-02-17T01:08:20.370Z,4.40
2019-02-17T01:10:49.904Z,4.30
2019-02-17T01:13:19.376Z,4.30
2019-02-17T01:15:48.899Z,4.30
2019-02-17T01:18:18.414Z,4.20
2019-02-17T01:20:48.576Z,4.20
2019-02-17T01:23:18.093Z,4.20
2019-02-17T01:25:47.623Z,4.20
2019-02-17T01:28:17.092Z,4.10
2019-02-17T01:30:46.652Z,4.10
2019-02-17T01:33:16.180Z,4.00
2019-02-17T01:35:45.729Z,4.00
2019-02-17T01:38:15.215Z,4.00
2019-02-17T01:40:44.650Z,4.00
2019-02-17T01:43:14.110Z,4.00
2019-02-17T01:45:43.656Z,4.00
2019-02-17T01:48:13.116Z,3.90
2019-02-17T01:50:42.567Z,3.90
2019-02-17T01:53:12.024Z,3.90
2019-02-17T01:55:41.515Z,3.80
2019-02-17T01:58:10.973Z,3.80
2019-02-17T02:00:40.744Z,3.80
2019-02-17T02:03:10.219Z,3.80
2019-02-17T02:05:39.676Z,3.80
2019-02-17T02:08:09.217Z,3.80
2019-02-17T02:10:38.698Z,3.80
2019-02-17T02:13:08.161Z,3.70
2019-02-17T02:15:37.682Z,3.70
2019-02-17T02:18:07.243Z,3.70
2019-02-17T02:20:36.716Z,3.70
2019-02-17T02:23:06.175Z,3.70
2019-02-17T02:25:36.273Z,3.70
2019-02-17T02:28:05.803Z,3.70
2019-02-17T02:30:35.299Z,3.60
2019-02-17T02:33:04.788Z,3.60
2019-02-17T02:35:34.306Z,3.60
2019-02-17T02:38:03.812Z,3.60
2019-02-17T02:40:33.382Z,3.60
2019-02-17T02:43:02.849Z,3.50
2019-02-17T02:45:32.380Z,3.50
2019-02-17T02:48:01.937Z,3.50
2019-02-17T02:50:31.381Z,3.40
2019-02-17T02:53:00.846Z,3.40
2019-02-17T02:55:30.368Z,3.40
2019-02-17T02:57:59.819Z,3.40
2019-02-17T03:00:29.263Z,3.40
2019-02-17T03:02:58.800Z,3.40
2019-02-17T03:05:28.283Z,3.40
2019-02-17T03:07:57.872Z,3.30
2019-02-17T03:10:27.294Z,3.30
2019-02-17T03:12:56.795Z,3.30
2019-02-17T03:15:26.259Z,3.30
2019-02-17T03:17:55.717Z,3.30
2019-02-17T03:20:25.250Z,3.30
2019-02-17T03:22:54.695Z,3.20
2019-02-17T03:25:24.137Z,3.30
2019-02-17T03:27:53.766Z,3.30
2019-02-17T03:30:23.200Z,3.30
2019-02-17T03:32:52.685Z,3.30
2019-02-17T03:35:22.129Z,3.30
2019-02-17T03:37:51.608Z,3.30
2019-02-17T03:40:21.069Z,3.30
2019-02-17T03:42:50.587Z,3.30
2019-02-17T03:45:20.076Z,3.30
2019-02-17T03:47:49.569Z,3.30
2019-02-17T03:50:19.034Z,3.30
2019-02-17T03:52:48.481Z,3.30
2019-02-17T03:55:18.065Z,3.30
2019-02-17T03:57:47.512Z,3.30
2019-02-17T04:00:17.624Z,3.30
2019-02-17T04:02:47.220Z,3.30
2019-02-17T04:05:16.726Z,3.30
2019-02-17T04:07:46.185Z,3.30
2019-02-17T04:10:15.655Z,3.40
2019-02-17T04:12:45.148Z,3.40
2019-02-17T04:15:14.810Z,3.40
2019-02-17T04:17:44.328Z,3.40
2019-02-17T04:20:14.204Z,3.40
2019-02-17T04:22:43.711Z,3.40
2019-02-17T04:25:13.185Z,3.40
2019-02-17T04:27:42.644Z,3.40
2019-02-17T04:30:12.348Z,3.30
2019-02-17T04:32:41.859Z,3.40
2019-02-17T04:35:11.380Z,3.30
2019-02-17T04:37:40.857Z,3.40
2019-02-17T04:40:10.457Z,3.30
2019-02-17T04:42:39.905Z,3.30
2019-02-17T04:45:09.583Z,3.40
2019-02-17T04:47:39.046Z,3.30
2019-02-17T04:50:10.003Z,3.30
2019-02-17T04:52:39.554Z,3.30
2019-02-17T04:55:09.449Z,3.30
2019-02-17T04:57:38.907Z,3.30
2019-02-17T05:00:10.465Z,3.30
2019-02-17T05:02:39.946Z,3.30
2019-02-17T05:05:09.631Z,3.30
2019-02-17T05:07:39.080Z,3.30
2019-02-17T05:10:09.163Z,3.40
2019-02-17T05:12:38.626Z,3.30
2019-02-17T05:15:09.634Z,3.30
2019-02-17T05:17:39.108Z,3.30
2019-02-17T05:20:09.880Z,3.30
2019-02-17T05:22:39.660Z,3.40
2019-02-17T05:25:09.354Z,3.40
2019-02-17T05:27:38.809Z,3.30
2019-02-17T05:30:12.495Z,3.30
2019-02-17T05:32:41.946Z,3.30
2019-02-17T05:35:11.481Z,3.30
2019-02-17T05:37:40.917Z,3.30
2019-02-17T05:40:10.590Z,3.30
2019-02-17T05:42:40.045Z,3.30
2019-02-17T05:45:09.832Z,3.30
2019-02-17T05:47:39.267Z,3.30
2019-02-17T05:50:09.771Z,3.40
2019-02-17T05:52:39.208Z,3.40
2019-02-17T05:55:08.920Z,3.40
2019-02-17T05:57:38.410Z,3.40
2019-02-17T06:00:12.120Z,3.50
2019-02-17T06:02:41.552Z,3.60
2019-02-17T06:05:11.034Z,3.70
2019-02-17T06:07:40.523Z,3.80
2019-02-17T06:10:10.924Z,3.90
2019-02-17T06:12:40.387Z,4.00
2019-02-17T06:15:10.037Z,4.10
2019-02-17T06:17:39.489Z,4.20
2019-02-17T06:20:11.277Z,4.30
2019-02-17T06:22:40.744Z,4.40
2019-02-17T06:25:10.333Z,4.40
2019-02-17T06:27:39.820Z,4.50
2019-02-17T06:30:10.473Z,4.50
2019-02-17T06:32:39.970Z,4.50
2019-02-17T06:35:09.788Z,4.60
2019-02-17T06:37:39.273Z,4.60
2019-02-17T06:40:09.630Z,4.70
2019-02-17T06:42:39.209Z,4.80
2019-02-17T06:45:10.324Z,4.90
2019-02-17T06:47:39.765Z,5.00
2019-02-17T06:50:10.979Z,5.00
2019-02-17T06:52:40.403Z,5.10
2019-02-17T06:55:11.624Z,5.20
2019-02-17T06:57:42.360Z,5.30
2019-02-17T07:00:16.750Z,5.30
2019-02-17T07:02:46.154Z,5.40
2019-02-17T07:05:35.369Z,5.50
2019-02-17T07:08:05.000Z,5.50
2019-02-17T07:10:34.265Z,5.60
2019-02-17T07:13:03.806Z,5.60
2019-02-17T07:15:33.374Z,5.70
2019-02-17T07:18:02.955Z,5.70
2019-02-17T07:20:32.437Z,5.80
2019-02-17T07:23:01.922Z,5.80
2019-02-17T07:25:31.381Z,5.80
2019-02-17T07:28:00.848Z,5.90
2019-02-17T07:30:30.304Z,5.90
2019-02-17T07:32:59.755Z,5.90
2019-02-17T07:35:29.216Z,6.00
2019-02-17T07:37:58.668Z,6.00
2019-02-17T07:40:28.128Z,6.10
2019-02-17T07:42:57.573Z,6.10
2019-02-17T07:45:27.019Z,6.20
2019-02-17T07:47:56.513Z,6.20
2019-02-17T07:50:25.955Z,6.30
2019-02-17T07:52:55.473Z,6.40
2019-02-17T07:55:24.946Z,6.40
2019-02-17T07:57:54.488Z,6.50
2019-02-17T08:00:23.949Z,6.60
2019-02-17T08:02:53.427Z,6.60
2019-02-17T08:05:22.879Z,6.70
2019-02-17T08:07:52.390Z,6.80
2019-02-17T08:10:22.037Z,6.80
2019-02-17T08:12:51.521Z,6.90
2019-02-17T08:15:21.021Z,7.00
2019-02-17T08:17:50.485Z,7.00
2019-02-17T08:20:20.124Z,7.10
2019-02-17T08:22:49.592Z,7.10
2019-02-17T08:25:21.846Z,7.20
2019-02-17T08:27:50.261Z,7.30
2019-02-17T08:30:19.777Z,7.30
2019-02-17T08:32:49.245Z,7.40
2019-02-17T08:35:18.704Z,7.40
2019-02-17T08:37:48.262Z,7.50
2019-02-17T08:40:17.703Z,7.60
2019-02-17T08:42:47.274Z,7.60
2019-02-17T08:45:16.716Z,7.70
2019-02-17T08:47:46.165Z,7.80
2019-02-17T08:50:15.640Z,7.80
2019-02-17T08:52:45.076Z,7.90
2019-02-17T08:55:14.665Z,8.00
2019-02-17T08:57:44.123Z,8.00
2019-02-17T09:00:15.233Z,8.10
2019-02-17T09:02:44.636Z,8.20
2019-02-17T09:05:14.082Z,8.30
2019-02-17T09:07:43.616Z,8.40
2019-02-17T09:10:13.787Z,8.50
2019-02-17T09:12:43.375Z,8.60
2019-02-17T09:15:13.379Z,8.70
2019-02-17T09:17:43.068Z,8.70
2019-02-17T09:20:12.910Z,8.90
2019-02-17T09:22:42.370Z,9.00
2019-02-17T09:25:12.864Z,9.10
2019-02-17T09:27:42.376Z,9.20
2019-02-17T09:30:17.613Z,9.30
2019-02-17T09:32:47.225Z,9.40
2019-02-17T09:35:16.697Z,9.50
2019-02-17T09:37:46.159Z,9.60
2019-02-17T09:40:15.781Z,9.80
2019-02-17T09:42:45.238Z,9.90
2019-02-17T09:45:16.489Z,10.10
2019-02-17T09:47:46.027Z,10.20
2019-02-17T09:50:15.971Z,10.40
2019-02-17T09:52:45.562Z,10.50
2019-02-17T09:55:15.035Z,10.70
2019-02-17T09:57:44.451Z,10.80
2019-02-17T10:00:16.120Z,11.00
2019-02-17T10:02:45.663Z,11.20
2019-02-17T10:05:15.569Z,11.40
2019-02-17T10:07:45.012Z,11.60
2019-02-17T10:10:17.895Z,11.90
2019-02-17T10:12:47.362Z,12.10
2019-02-17T10:15:16.963Z,12.20
2019-02-17T10:17:46.473Z,12.40
2019-02-17T10:20:16.781Z,12.50
2019-02-17T10:22:46.302Z,12.70
2019-02-17T10:25:15.806Z,12.90
2019-02-17T10:27:45.300Z,13.00
2019-02-17T10:30:18.807Z,13.20
2019-02-17T10:32:48.298Z,13.50
2019-02-17T10:35:17.735Z,13.70
2019-02-17T10:37:47.193Z,13.90
2019-02-17T10:40:21.074Z,14.20
2019-02-17T10:42:50.545Z,14.40
2019-02-17T10:45:20.065Z,14.60
2019-02-17T10:47:49.629Z,14.80
2019-02-17T10:50:19.079Z,15.00
2019-02-17T10:52:48.608Z,15.10
2019-02-17T10:55:18.092Z,15.20
2019-02-17T10:57:47.520Z,15.30
2019-02-17T11:00:22.058Z,15.50
2019-02-17T11:02:51.602Z,15.50
2019-02-17T11:05:21.130Z,15.60
2019-02-17T11:07:51.153Z,15.70
2019-02-17T11:10:20.758Z,15.70
2019-02-17T11:12:50.300Z,15.80
2019-02-17T11:15:22.740Z,15.90
2019-02-17T11:17:52.253Z,16.00
2019-02-17T11:20:21.732Z,16.10
2019-02-17T11:22:51.244Z,16.40
2019-02-17T11:25:20.754Z,16.60
2019-02-17T11:27:50.212Z,16.80
2019-02-17T11:30:21.838Z,17.00
2019-02-17T11:32:58.056Z,17.10
2019-02-17T11:35:22.453Z,17.30
2019-02-17T11:37:52.021Z,17.40
2019-02-17T11:40:21.550Z,17.50
2019-02-17T11:42:51.068Z,17.60
2019-02-17T11:45:21.008Z,17.70
2019-02-17T11:47:50.485Z,17.90
2019-02-17T11:50:20.041Z,18.00
2019-02-17T11:52:49.562Z,18.10
2019-02-17T11:55:19.008Z,18.30
2019-02-17T11:57:48.614Z,18.60
2019-02-17T12:00:21.016Z,18.70
2019-02-17T12:02:50.538Z,18.90
2019-02-17T12:05:20.025Z,19.10
2019-02-17T12:07:55.152Z,19.20
2019-02-17T12:10:24.751Z,19.30
2019-02-17T12:12:54.273Z,19.40
2019-02-17T12:15:23.820Z,19.50
2019-02-17T12:17:53.277Z,19.60
2019-02-17T12:20:28.296Z,19.70
2019-02-17T12:23:11.189Z,19.80
2019-02-17T12:25:42.316Z,19.80
2019-02-17T12:28:13.425Z,19.90
2019-02-17T12:30:44.468Z,19.90
2019-02-17T12:33:19.368Z,19.90
2019-02-17T12:35:45.225Z,19.90
2019-02-17T12:38:14.709Z,20.00
2019-02-17T12:40:44.212Z,20.10
2019-02-17T12:43:13.652Z,20.10
2019-02-17T12:45:43.138Z,20.20
2019-02-17T12:48:12.666Z,20.20
2019-02-17T12:50:42.146Z,20.30
2019-02-17T12:53:11.810Z,20.40
2019-02-17T12:55:41.322Z,20.30
2019-02-17T12:58:10.911Z,20.40
2019-02-17T13:00:40.401Z,20.40
2019-02-17T13:03:09.872Z,20.50
2019-02-17T13:05:39.320Z,20.50
2019-02-17T13:08:08.857Z,20.60
2019-02-17T13:10:39.891Z,20.60
2019-02-17T13:13:09.400Z,20.60
2019-02-17T13:15:39.233Z,20.70
2019-02-17T13:18:08.719Z,20.80
2019-02-17T13:20:38.179Z,20.80
2019-02-17T13:23:07.720Z,20.90
2019-02-17T13:25:38.276Z,20.90
2019-02-17T13:28:08.003Z,20.90
2019-02-17T13:30:37.570Z,21.00
2019-02-17T13:33:07.041Z,21.00
2019-02-17T13:35:36.554Z,21.00
2019-02-17T13:38:06.100Z,21.10
2019-02-17T13:40:35.628Z,21.20
2019-02-17T13:43:05.148Z,21.30
2019-02-17T13:45:34.706Z,21.40
2019-02-17T13:48:04.179Z,21.50
2019-02-17T13:50:33.651Z,21.50
2019-02-17T13:53:11.362Z,21.60
2019-02-17T13:55:34.319Z,21.60
2019-02-17T13:58:03.810Z,21.60
2019-02-17T14:00:33.298Z,21.60
2019-02-17T14:03:04.479Z,21.60
2019-02-17T14:05:34.123Z,21.60
2019-02-17T14:08:03.575Z,21.60
2019-02-17T14:10:33.033Z,21.60
2019-02-17T14:13:02.508Z,21.60
2019-02-17T14:15:32.050Z,21.60
2019-02-17T14:18:01.521Z,21.60
2019-02-17T14:20:30.994Z,21.70
2019-02-17T14:23:00.486Z,21.70
2019-02-17T14:25:29.928Z,21.80
2019-02-17T14:27:59.389Z,21.80
2019-02-17T14:30:30.452Z,21.80
2019-02-17T14:33:00.152Z,21.80
2019-02-17T14:35:29.610Z,21.80
2019-02-17T14:37:59.086Z,21.90
2019-02-17T14:40:30.231Z,21.90
2019-02-17T14:42:59.676Z,22.00
2019-02-17T14:45:29.239Z,22.00
2019-02-17T14:47:58.708Z,22.10
2019-02-17T14:50:28.192Z,22.20
2019-02-17T14:52:57.764Z,22.20
2019-02-17T14:55:27.251Z,22.20
2019-02-17T14:58:04.919Z,22.20
2019-02-17T15:00:27.916Z,22.30
2019-02-17T15:02:57.374Z,22.30
2019-02-17T15:05:26.856Z,22.30
2019-02-17T15:07:56.401Z,22.30
2019-02-17T15:10:25.924Z,22.30
2019-02-17T15:12:55.356Z,22.30
2019-02-17T15:15:24.821Z,22.40
2019-02-17T15:17:54.297Z,22.40
2019-02-17T15:20:25.786Z,22.40
2019-02-17T15:22:55.426Z,22.40
2019-02-17T15:25:25.112Z,22.30
2019-02-17T15:27:54.590Z,22.30
2019-02-17T15:30:24.221Z,22.20
2019-02-17T15:33:03.235Z,22.10
2019-02-17T15:35:25.010Z,22.10
2019-02-17T15:37:54.496Z,22.00
2019-02-17T15:40:24.037Z,22.00
2019-02-17T15:42:53.499Z,21.90
2019-02-17T15:45:23.060Z,21.80
2019-02-17T15:47:52.597Z,21.70
2019-02-17T15:50:22.152Z,21.50
2019-02-17T15:52:51.681Z,21.40
2019-02-17T15:55:21.146Z,21.20
2019-02-17T15:57:50.664Z,21.10
2019-02-17T16:00:21.147Z,21.00
2019-02-17T16:02:50.611Z,20.80
2019-02-17T16:05:20.103Z,20.70
2019-02-17T16:07:49.545Z,20.50
2019-02-17T16:10:19.465Z,20.30
2019-02-17T16:12:48.935Z,20.20
2019-02-17T16:15:24.432Z,20.00
2019-02-17T16:17:53.924Z,19.90
2019-02-17T16:20:24.920Z,19.70
2019-02-17T16:22:54.435Z,19.50
2019-02-17T16:25:24.004Z,19.30
2019-02-17T16:27:53.660Z,19.20
2019-02-17T16:30:24.319Z,19.10
2019-02-17T16:32:53.804Z,19.00
2019-02-17T16:35:23.328Z,18.80
2019-02-17T16:37:52.950Z,18.70
2019-02-17T16:40:22.495Z,18.60
2019-02-17T16:42:51.961Z,18.40
2019-02-17T16:45:21.463Z,18.20
2019-02-17T16:47:51.005Z,18.10
2019-02-17T16:50:26.561Z,17.90
2019-02-17T16:52:56.041Z,17.70
2019-02-17T16:55:25.654Z,17.50
2019-02-17T16:57:55.176Z,17.30
2019-02-17T17:00:26.641Z,17.10
2019-02-17T17:02:57.317Z,16.80
2019-02-17T17:05:26.896Z,16.60
2019-02-17T17:07:56.508Z,16.30
2019-02-17T17:10:26.170Z,16.10
2019-02-17T17:12:55.848Z,15.90
2019-02-17T17:15:25.556Z,15.70
2019-02-17T17:17:55.169Z,15.50
2019-02-17T17:20:25.009Z,15.30
2019-02-17T17:22:54.776Z,15.10
2019-02-17T17:25:24.446Z,14.90
2019-02-17T17:27:54.064Z,14.70
2019-02-17T17:30:23.954Z,14.50
2019-02-17T17:32:53.714Z,14.40
2019-02-17T17:35:23.401Z,14.20
2019-02-17T17:37:53.178Z,14.10
2019-02-17T17:40:22.985Z,13.90
2019-02-17T17:42:52.723Z,13.80
2019-02-17T17:45:23.273Z,13.70
2019-02-17T17:47:52.965Z,13.50
2019-02-17T17:50:22.422Z,13.40
2019-02-17T17:52:51.933Z,13.30
2019-02-17T17:55:21.551Z,13.20
2019-02-17T17:57:51.030Z,13.10
2019-02-17T18:00:22.332Z,13.00
2019-02-17T18:02:52.031Z,12.90
2019-02-17T18:05:21.672Z,12.80
2019-02-17T18:07:51.311Z,12.70
2019-02-17T18:10:20.906Z,12.60
2019-02-17T18:12:50.425Z,12.50
2019-02-17T18:15:21.102Z,12.40
2019-02-17T18:17:54.616Z,12.30
2019-02-17T18:20:22.286Z,12.10
2019-02-17T18:22:51.880Z,12.00
2019-02-17T18:25:21.677Z,11.90
2019-02-17T18:27:51.471Z,11.70
2019-02-17T18:30:21.694Z,11.60
2019-02-17T18:32:51.143Z,11.50
2019-02-17T18:35:20.961Z,11.50
2019-02-17T18:37:50.486Z,11.40
2019-02-17T18:40:21.108Z,11.40
2019-02-17T18:42:50.638Z,11.30
2019-02-17T18:45:20.077Z,11.30
2019-02-17T18:47:49.548Z,11.30
2019-02-17T18:50:20.709Z,11.20
2019-02-17T18:52:50.183Z,11.20
2019-02-17T18:55:20.653Z,11.10
2019-02-17T18:57:51.165Z,11.00
2019-02-17T19:00:26.583Z,10.90
2019-02-17T19:02:56.477Z,10.80
2019-02-17T19:05:32.162Z,10.70
2019-02-17T19:07:57.255Z,10.60
2019-02-17T19:10:26.791Z,10.50
2019-02-17T19:12:56.243Z,10.40
2019-02-17T19:15:25.720Z,10.30
2019-02-17T19:17:55.183Z,10.30
2019-02-17T19:20:34.963Z,10.30
2019-02-17T19:23:04.498Z,10.20
2019-02-17T19:25:33.991Z,10.10
2019-02-17T19:28:05.013Z,10.10
2019-02-17T19:30:34.595Z,10.00
2019-02-17T19:33:04.200Z,9.90
2019-02-17T19:35:41.476Z,9.90
2019-02-17T19:38:06.989Z,9.80
2019-02-17T19:40:36.475Z,9.80
2019-02-17T19:43:06.006Z,9.80
2019-02-17T19:45:35.537Z,9.80
2019-02-17T19:48:05.015Z,9.80
2019-02-17T19:50:34.555Z,9.70
2019-02-17T19:53:05.265Z,9.70
2019-02-17T19:55:34.919Z,9.60
2019-02-17T19:58:04.575Z,9.60
2019-02-17T20:00:34.165Z,9.60
2019-02-17T20:03:14.350Z,9.60
2019-02-17T20:05:54.694Z,9.60
2019-02-17T20:08:24.208Z,9.50
2019-02-17T20:10:53.771Z,9.60
2019-02-17T20:13:23.336Z,9.60
2019-02-17T20:15:52.798Z,9.60
2019-02-17T20:18:22.347Z,9.50
2019-02-17T20:20:51.823Z,9.50
2019-02-17T20:23:21.376Z,9.50
2019-02-17T20:25:50.907Z,9.50
2019-02-17T20:28:20.435Z,9.50
2019-02-17T20:30:49.941Z,9.50
2019-02-17T20:33:19.519Z,9.50
2019-02-17T20:35:49.022Z,9.50
2019-02-17T20:38:18.286Z,9.50
2019-02-17T20:40:48.015Z,9.50
2019-02-17T20:43:17.413Z,9.60
2019-02-17T20:45:46.875Z,9.60
2019-02-17T20:48:16.374Z,9.70
2019-02-17T20:50:45.823Z,9.80
2019-02-17T20:53:15.348Z,9.80
2019-02-17T20:55:44.821Z,9.90
2019-02-17T20:58:14.287Z,9.90
2019-02-17T21:00:43.819Z,9.90
2019-02-17T21:03:13.565Z,9.90
2019-02-17T21:05:43.108Z,10.00
2019-02-17T21:08:12.653Z,10.00
2019-02-17T21:10:42.207Z,10.00
2019-02-17T21:13:11.683Z,10.00
2019-02-17T21:15:41.341Z,10.00
2019-02-17T21:18:10.996Z,9.90
2019-02-17T21:20:40.740Z,9.90
2019-02-17T21:23:10.411Z,9.90
2019-02-17T21:25:39.974Z,9.90
2019-02-17T21:28:09.472Z,9.90
2019-02-17T21:30:39.032Z,9.80
2019-02-17T21:33:09.198Z,9.80
2019-02-17T21:35:39.214Z,9.70
2019-02-17T21:38:08.893Z,9.60
2019-02-17T21:40:38.692Z,9.60
2019-02-17T21:43:08.206Z,9.60
2019-02-17T21:45:37.864Z,9.60
2019-02-17T21:48:07.467Z,9.50
2019-02-17T21:50:37.073Z,9.60
2019-02-17T21:53:10.303Z,9.60
2019-02-17T21:55:39.927Z,9.60
2019-02-17T21:58:09.274Z,9.50
2019-02-17T22:00:38.816Z,9.50
2019-02-17T22:03:08.380Z,9.50
2019-02-17T22:05:37.852Z,9.50
2019-02-17T22:08:07.372Z,9.40
2019-02-17T22:10:36.810Z,9.40
2019-02-17T22:13:06.343Z,9.30
2019-02-17T22:15:35.804Z,9.20
2019-02-17T22:18:05.303Z,9.10
2019-02-17T22:20:34.767Z,9.10
2019-02-17T22:23:04.304Z,9.00
2019-02-17T22:25:33.796Z,8.90
2019-02-17T22:28:03.273Z,8.80
2019-02-17T22:30:32.746Z,8.70
2019-02-17T22:33:02.214Z,8.60
2019-02-17T22:35:31.889Z,8.60
2019-02-17T22:38:01.375Z,8.60
2019-02-17T22:40:30.905Z,8.60
2019-02-17T22:43:00.412Z,8.60
2019-02-17T22:45:29.864Z,8.60
2019-02-17T22:47:59.490Z,8.60
2019-02-17T22:50:28.962Z,8.60
2019-02-17T22:52:58.470Z,8.60
2019-02-17T22:55:27.987Z,8.60
2019-02-17T22:57:57.478Z,8.60
2019-02-17T23:00:48.149Z,8.60
2019-02-17T23:03:17.808Z,8.50
2019-02-17T23:05:47.520Z,8.40
2019-02-17T23:08:17.116Z,8.30
2019-02-17T23:10:46.711Z,8.20
2019-02-17T23:13:16.191Z,8.10
2019-02-17T23:15:45.698Z,8.00
2019-02-17T23:18:15.164Z,7.80
2019-02-17T23:20:44.726Z,7.70
2019-02-17T23:23:14.194Z,7.60
2019-02-17T23:25:43.629Z,7.50
2019-02-17T23:28:13.101Z,7.40
2019-02-17T23:30:42.701Z,7.30
2019-02-17T23:33:12.313Z,7.20
2019-02-17T23:35:41.816Z,7.10
2019-02-17T23:38:11.246Z,7.00
2019-02-17T23:40:40.740Z,7.00
2019-02-17T23:43:10.256Z,6.90
2019-02-17T23:45:39.745Z,6.80
2019-02-17T23:48:09.279Z,6.80
2019-02-17T23:50:38.811Z,6.70
2019-02-17T23:53:08.428Z,6.70
2019-02-17T23:55:37.932Z,6.60
2019-02-17T23:58:07.524Z,6.60
